Time,TemperatureF,DewpointF,PressureIn,WindDirection,WindDirectionDegrees,WindSpeedMPH,WindSpeedGustMPH,Humidity,HourlyPrecipIn,Conditions,Clouds,dailyrainin,SolarRadiationWatts/m^2,SoftwareType,DateUTC
2013-04-12 00:03:00,64.0,52.0,-100.00,West,271,3.0,16.0,64,0.03,,,0.03,0.000000,,2013-04-12 04:03:00,
2013-04-12 00:11:00,55.0,53.0,-100.00,North,1,2.0,17.0,94,0.30,,,0.33,0.000000,,2013-04-12 04:11:00,
2013-04-12 00:33:00,55.0,53.0,-100.00,North,1,2.0,17.0,94,0.30,,,0.33,0.000000,,2013-04-12 04:33:00,
2013-04-12 00:43:00,55.0,53.0,-100.00,North,1,2.0,17.0,94,0.30,,,0.33,0.000000,,2013-04-12 04:43:00,
2013-04-12 00:53:00,55.0,53.0,-100.00,North,1,2.0,17.0,94,0.30,,,0.33,0.000000,,2013-04-12 04:53:00,
2013-04-12 01:03:00,55.0,53.0,-100.00,North,1,2.0,17.0,94,0.30,,,0.33,0.000000,,2013-04-12 05:03:00,
2013-04-12 01:11:00,56.0,55.0,-100.00,ENE,63,5.0,11.0,97,0.18,,,0.51,0.000000,,2013-04-12 05:11:00,
2013-04-12 01:32:00,56.0,55.0,-100.00,ENE,63,5.0,11.0,97,0.18,,,0.51,0.000000,,2013-04-12 05:32:00,
2013-04-12 01:42:00,56.0,55.0,-100.00,ENE,63,5.0,11.0,97,0.18,,,0.51,0.000000,,2013-04-12 05:42:00,
2013-04-12 01:52:00,56.0,55.0,-100.00,ENE,63,5.0,11.0,97,0.18,,,0.51,0.000000,,2013-04-12 05:52:00,
2013-04-12 02:02:00,56.0,55.0,-100.00,ENE,63,5.0,11.0,97,0.18,,,0.51,0.000000,,2013-04-12 06:02:00,
2013-04-12 02:11:00,57.0,55.0,-100.00,North,359,4.0,12.0,93,0.16,,,0.67,0.000000,,2013-04-12 06:11:00,
2013-04-12 02:32:00,57.0,55.0,-100.00,North,359,4.0,12.0,93,0.16,,,0.67,0.000000,,2013-04-12 06:32:00,
2013-04-12 02:42:00,57.0,55.0,-100.00,North,359,4.0,12.0,93,0.16,,,0.67,0.000000,,2013-04-12 06:42:00,
2013-04-12 02:52:00,57.0,55.0,-100.00,North,359,4.0,12.0,93,0.16,,,0.67,0.000000,,2013-04-12 06:52:00,
2013-04-12 03:02:00,57.0,55.0,-100.00,North,359,4.0,12.0,93,0.16,,,0.67,0.000000,,2013-04-12 07:02:00,
2013-04-12 03:11:00,58.0,54.0,-100.00,SSW,201,4.0,16.0,85,0.03,,,0.70,0.000000,,2013-04-12 07:11:00,
2013-04-12 03:42:00,58.0,54.0,-100.00,SSW,201,4.0,16.0,85,0.03,,,0.70,0.000000,,2013-04-12 07:42:00,
2013-04-12 03:52:00,58.0,54.0,-100.00,SSW,201,4.0,16.0,85,0.03,,,0.70,0.000000,,2013-04-12 07:52:00,
2013-04-12 04:03:00,58.0,54.0,-100.00,SSW,201,4.0,16.0,85,0.03,,,0.70,0.000000,,2013-04-12 08:03:00,
2013-04-12 04:11:00,58.0,54.0,-100.00,WNW,297,4.0,12.0,86,0.00,,,0.70,0.000000,,2013-04-12 08:11:00,
2013-04-12 04:32:00,58.0,54.0,-100.00,WNW,297,4.0,12.0,86,0.00,,,0.70,0.000000,,2013-04-12 08:32:00,
2013-04-12 04:43:00,58.0,54.0,-100.00,WNW,297,4.0,12.0,86,0.00,,,0.70,0.000000,,2013-04-12 08:43:00,
2013-04-12 04:53:00,58.0,54.0,-100.00,WNW,297,4.0,12.0,86,0.00,,,0.70,0.000000,,2013-04-12 08:53:00,
2013-04-12 05:02:00,58.0,54.0,-100.00,WNW,297,4.0,12.0,86,0.00,,,0.70,0.000000,,2013-04-12 09:02:00,
2013-04-12 05:11:00,57.0,55.0,-100.00,NNE,23,2.0,11.0,92,0.07,,,0.77,0.000000,,2013-04-12 09:11:00,
2013-04-12 05:33:00,57.0,55.0,-100.00,NNE,23,2.0,11.0,92,0.07,,,0.77,0.000000,,2013-04-12 09:33:00,
2013-04-12 05:44:00,57.0,55.0,-100.00,NNE,23,2.0,11.0,92,0.07,,,0.77,0.000000,,2013-04-12 09:44:00,
2013-04-12 05:53:00,57.0,55.0,-100.00,NNE,23,2.0,11.0,92,0.07,,,0.77,0.000000,,2013-04-12 09:53:00,
2013-04-12 06:03:00,57.0,55.0,-100.00,NNE,23,2.0,11.0,92,0.07,,,0.77,0.000000,,2013-04-12 10:03:00,
2013-04-12 06:11:00,56.0,55.0,-100.00,ENE,73,4.0,11.0,95,0.13,,,0.90,0.000000,,2013-04-12 10:11:00,
2013-04-12 06:43:00,56.0,55.0,-100.00,ENE,73,4.0,11.0,95,0.13,,,0.90,0.000000,,2013-04-12 10:43:00,
2013-04-12 06:53:00,56.0,55.0,-100.00,ENE,73,4.0,11.0,95,0.13,,,0.90,0.000000,,2013-04-12 10:53:00,
2013-04-12 07:03:00,56.0,55.0,-100.00,ENE,73,4.0,11.0,95,0.13,,,0.90,0.000000,,2013-04-12 11:03:00,
2013-04-12 07:11:00,55.0,54.0,-100.00,East,79,6.0,12.0,97,0.01,,,0.91,0.000000,,2013-04-12 11:11:00,
2013-04-12 07:43:00,55.0,54.0,-100.00,East,79,6.0,12.0,97,0.01,,,0.91,0.000000,,2013-04-12 11:43:00,
2013-04-12 07:52:00,55.0,54.0,-100.00,East,79,6.0,12.0,97,0.01,,,0.91,0.000000,,2013-04-12 11:52:00,
2013-04-12 08:03:00,55.0,54.0,-100.00,East,79,6.0,12.0,97,0.01,,,0.91,0.000000,,2013-04-12 12:03:00,
2013-04-12 08:11:00,52.0,50.0,-100.00,East,89,4.0,11.0,92,0.00,,,0.91,23.000000,,2013-04-12 12:11:00,
2013-04-12 08:33:00,52.0,50.0,-100.00,East,89,4.0,11.0,92,0.00,,,0.91,23.000000,,2013-04-12 12:33:00,
2013-04-12 08:43:00,52.0,50.0,-100.00,East,89,4.0,11.0,92,0.00,,,0.91,23.000000,,2013-04-12 12:43:00,
2013-04-12 08:54:00,52.0,50.0,-100.00,East,89,4.0,11.0,92,0.00,,,0.91,23.000000,,2013-04-12 12:54:00,
2013-04-12 09:03:00,52.0,50.0,-100.00,East,89,4.0,11.0,92,0.00,,,0.91,23.000000,,2013-04-12 13:03:00,
2013-04-12 09:11:00,52.0,50.0,-100.00,East,88,2.0,10.0,93,0.00,,,0.91,55.000000,,2013-04-12 13:11:00,
2013-04-12 09:32:00,52.0,50.0,-100.00,East,88,2.0,10.0,93,0.00,,,0.91,55.000000,,2013-04-12 13:32:00,
2013-04-12 09:43:00,52.0,50.0,-100.00,East,88,2.0,10.0,93,0.00,,,0.91,55.000000,,2013-04-12 13:43:00,
2013-04-12 09:53:00,52.0,50.0,-100.00,East,88,2.0,10.0,93,0.00,,,0.91,55.000000,,2013-04-12 13:53:00,
2013-04-12 10:03:00,52.0,50.0,-100.00,East,88,2.0,10.0,93,0.00,,,0.91,55.000000,,2013-04-12 14:03:00,
2013-04-12 10:11:00,51.0,47.0,-100.00,ENE,70,5.0,10.0,87,0.00,,,0.91,113.000000,,2013-04-12 14:11:00,
2013-04-12 10:33:00,51.0,47.0,-100.00,ENE,70,5.0,10.0,87,0.00,,,0.91,113.000000,,2013-04-12 14:33:00,
2013-04-12 10:43:00,51.0,47.0,-100.00,ENE,70,5.0,10.0,87,0.00,,,0.91,113.000000,,2013-04-12 14:43:00,
2013-04-12 10:54:00,51.0,47.0,-100.00,ENE,70,5.0,10.0,87,0.00,,,0.91,113.000000,,2013-04-12 14:54:00,
2013-04-12 11:03:00,51.0,47.0,-100.00,ENE,70,5.0,10.0,87,0.00,,,0.91,113.000000,,2013-04-12 15:03:00,
2013-04-12 11:11:00,55.0,51.0,-100.00,East,80,3.0,11.0,85,0.00,,,-99.99,308.000000,,2013-04-12 15:11:00,
2013-04-12 11:43:00,55.0,51.0,-100.00,East,80,3.0,11.0,85,0.00,,,-99.99,308.000000,,2013-04-12 15:43:00,
2013-04-12 11:53:00,55.0,51.0,-100.00,East,80,3.0,11.0,85,0.00,,,-99.99,308.000000,,2013-04-12 15:53:00,
2013-04-12 12:04:00,55.0,51.0,-100.00,East,80,3.0,11.0,85,0.00,,,-99.99,308.000000,,2013-04-12 16:04:00,
2013-04-12 12:11:00,58.0,46.0,-100.00,NE,47,6.0,13.0,64,0.00,,,-99.99,1008.000000,,2013-04-12 16:11:00,
2013-04-12 12:34:00,58.0,46.0,-100.00,NE,47,6.0,13.0,64,0.00,,,-99.99,1008.000000,,2013-04-12 16:34:00,
2013-04-12 12:43:00,58.0,46.0,-100.00,NE,47,6.0,13.0,64,0.00,,,-99.99,1008.000000,,2013-04-12 16:43:00,
2013-04-12 12:53:00,58.0,46.0,-100.00,NE,47,6.0,13.0,64,0.00,,,-99.99,1008.000000,,2013-04-12 16:53:00,
2013-04-12 13:04:00,58.0,46.0,-100.00,NE,47,6.0,13.0,64,0.00,,,-99.99,1008.000000,,2013-04-12 17:04:00,
2013-04-12 13:11:00,56.0,43.0,-100.00,NE,56,8.0,15.0,61,0.00,,,0.91,1150.000000,,2013-04-12 17:11:00,
2013-04-12 14:07:00,56.0,43.0,-100.00,NE,56,8.0,15.0,61,0.00,,,0.91,1150.000000,,2013-04-12 18:07:00,
2013-04-12 14:11:00,55.0,41.0,-100.00,ENE,70,6.0,15.0,59,0.00,,,0.91,992.000000,,2013-04-12 18:11:00,
2013-04-12 15:11:00,58.0,40.0,-100.00,North,5,5.0,13.0,51,0.00,,,0.91,1090.000000,,2013-04-12 19:11:00,
2013-04-12 15:53:00,58.0,40.0,-100.00,North,5,5.0,13.0,51,0.00,,,0.91,1090.000000,,2013-04-12 19:53:00,
2013-04-12 16:02:00,58.0,40.0,-100.00,North,5,5.0,13.0,51,0.00,,,0.91,1090.000000,,2013-04-12 20:02:00,
2013-04-12 16:11:00,59.0,38.0,-100.00,ENE,63,5.0,15.0,46,0.00,,,0.91,955.000000,,2013-04-12 20:11:00,
2013-04-12 16:43:00,59.0,38.0,-100.00,ENE,63,5.0,15.0,46,0.00,,,0.91,955.000000,,2013-04-12 20:43:00,
2013-04-12 16:52:00,59.0,38.0,-100.00,ENE,63,5.0,15.0,46,0.00,,,0.91,955.000000,,2013-04-12 20:52:00,
2013-04-12 17:03:00,59.0,38.0,-100.00,ENE,63,5.0,15.0,46,0.00,,,0.91,955.000000,,2013-04-12 21:03:00,
2013-04-12 17:11:00,59.0,38.0,-100.00,NE,46,5.0,14.0,45,0.00,,,0.91,776.000000,,2013-04-12 21:11:00,
2013-04-12 17:43:00,59.0,38.0,-100.00,NE,46,5.0,14.0,45,0.00,,,0.91,776.000000,,2013-04-12 21:43:00,
2013-04-12 17:53:00,59.0,38.0,-100.00,NE,46,5.0,14.0,45,0.00,,,0.91,776.000000,,2013-04-12 21:53:00,
2013-04-12 18:03:00,59.0,38.0,-100.00,NE,46,5.0,14.0,45,0.00,,,0.91,776.000000,,2013-04-12 22:03:00,
2013-04-12 18:11:00,57.0,36.0,-100.00,NNE,31,5.0,13.0,46,0.00,,,0.91,212.000000,,2013-04-12 22:11:00,
2013-04-12 18:43:00,57.0,36.0,-100.00,NNE,31,5.0,13.0,46,0.00,,,0.91,212.000000,,2013-04-12 22:43:00,
2013-04-12 18:52:00,57.0,36.0,-100.00,NNE,31,5.0,13.0,46,0.00,,,0.91,212.000000,,2013-04-12 22:52:00,
2013-04-12 19:04:00,57.0,36.0,-100.00,NNE,31,5.0,13.0,46,0.00,,,0.91,212.000000,,2013-04-12 23:04:00,
2013-04-12 19:11:00,56.0,37.0,-100.00,ENE,76,5.0,11.0,48,0.00,,,0.91,46.000000,,2013-04-12 23:11:00,
2013-04-12 19:32:00,56.0,37.0,-100.00,ENE,76,5.0,11.0,48,0.00,,,0.91,46.000000,,2013-04-12 23:32:00,
2013-04-12 19:42:00,56.0,37.0,-100.00,ENE,76,5.0,11.0,48,0.00,,,0.91,46.000000,,2013-04-12 23:42:00,
2013-04-12 19:52:00,56.0,37.0,-100.00,ENE,76,5.0,11.0,48,0.00,,,0.91,46.000000,,2013-04-12 23:52:00,
2013-04-12 20:02:00,56.0,37.0,-100.00,ENE,76,5.0,11.0,48,0.00,,,0.91,46.000000,,2013-04-13 00:02:00,
2013-04-12 21:11:00,50.0,32.0,-100.00,ENE,65,3.0,9.0,49,-99.99,,,0.91,0.000000,,2013-04-13 01:11:00,
2013-04-12 21:33:00,50.0,32.0,-100.00,ENE,65,3.0,9.0,49,-99.99,,,0.91,0.000000,,2013-04-13 01:33:00,
2013-04-12 21:43:00,50.0,32.0,-100.00,ENE,65,3.0,9.0,49,-99.99,,,0.91,0.000000,,2013-04-13 01:43:00,
2013-04-12 21:52:00,50.0,32.0,-100.00,ENE,65,3.0,9.0,49,-99.99,,,0.91,0.000000,,2013-04-13 01:52:00,
2013-04-12 22:02:00,50.0,32.0,-100.00,ENE,65,3.0,9.0,49,-99.99,,,0.91,0.000000,,2013-04-13 02:02:00,
2013-04-12 22:11:00,47.0,32.0,-100.00,East,89,1.0,9.0,55,0.00,,,0.91,0.000000,,2013-04-13 02:11:00,
2013-04-12 22:33:00,47.0,32.0,-100.00,East,89,1.0,9.0,55,0.00,,,0.91,0.000000,,2013-04-13 02:33:00,
2013-04-12 22:43:00,47.0,32.0,-100.00,East,89,1.0,9.0,55,0.00,,,0.91,0.000000,,2013-04-13 02:43:00,
2013-04-12 22:53:00,47.0,32.0,-100.00,East,89,1.0,9.0,55,0.00,,,0.91,0.000000,,2013-04-13 02:53:00,
2013-04-12 23:03:00,47.0,32.0,-100.00,East,89,1.0,9.0,55,0.00,,,0.91,0.000000,,2013-04-13 03:03:00,
2013-04-12 23:11:00,44.0,31.0,-100.00,NNW,334,1.0,6.0,59,0.00,,,0.88,0.000000,,2013-04-13 03:11:00,
2013-04-12 23:33:00,44.0,31.0,-100.00,NNW,334,1.0,6.0,59,0.00,,,0.88,0.000000,,2013-04-13 03:33:00,
2013-04-12 23:43:00,44.0,31.0,-100.00,NNW,334,1.0,6.0,59,0.00,,,0.88,0.000000,,2013-04-13 03:43:00,
2013-04-12 23:54:00,44.0,31.0,-100.00,NNW,334,1.0,6.0,59,0.00,,,0.88,0.000000,,2013-04-13 03:54:00,